Time;durP1;ratioP1;P1;durP2;ratioP2;P2;SDS_P1;SDS_P2;PMS_P1;PMS_P2;Temp;Humidity;BMP_temperature;BMP_pressure;BME280_temperature;BME280_humidity;BME280_pressure;Samples;Min_cycle;Max_cycle;Signal;HPM_P1;HPM_P2
2024/04/23 00:08:20;;;;;;;5.35;2.00;;;4.60;1.00;;;;;;21861304;26;20020;-77
2024/04/23 00:18:21;;;;;;;5.65;1.98;;;4.60;1.00;;;;;;21846116;26;20010;-75
2024/04/23 00:28:22;;;;;;;4.65;1.90;;;4.50;1.00;;;;;;21863610;26;20022;-79
2024/04/23 00:38:23;;;;;;;4.25;2.08;;;4.40;1.00;;;;;;21785624;26;19998;-78
2024/04/23 00:48:24;;;;;;;4.10;1.95;;;4.20;1.00;;;;;;21717234;27;20030;-77
2024/04/23 00:58:26;;;;;;;5.05;2.22;;;4.30;1.00;;;;;;21718544;27;20673;-78
2024/04/23 01:08:27;;;;;;;5.03;2.53;;;4.20;1.00;;;;;;21735246;27;20441;-78
2024/04/23 01:18:29;;;;;;;3.50;2.20;;;4.10;1.00;;;;;;21725137;27;20406;-78
2024/04/23 01:28:31;;;;;;;6.18;2.60;;;4.00;1.00;;;;;;21740805;27;20777;-78
2024/04/23 01:38:34;;;;;;;3.70;2.13;;;3.80;1.00;;;;;;21813724;26;20084;-78
2024/04/23 01:48:35;;;;;;;3.88;2.33;;;3.70;1.00;;;;;;21859189;26;20108;-79
2024/04/23 01:58:36;;;;;;;5.13;2.25;;;3.60;1.00;;;;;;21906586;26;20016;-79
2024/04/23 02:08:37;;;;;;;4.38;2.25;;;3.50;1.00;;;;;;21883104;26;20009;-79
2024/04/23 02:18:38;;;;;;;4.75;2.35;;;3.40;1.00;;;;;;21886929;26;20013;-75
2024/04/23 02:28:39;;;;;;;7.68;2.75;;;3.30;1.00;;;;;;21881057;26;20001;-76
2024/04/23 02:38:40;;;;;;;5.35;2.60;;;3.20;1.00;;;;;;21790793;26;20038;-76
2024/04/23 02:48:41;;;;;;;5.22;2.70;;;3.10;1.00;;;;;;21743453;27;20045;-76
2024/04/23 02:58:42;;;;;;;5.82;2.95;;;3.10;1.00;;;;;;21717407;27;20011;-76
2024/04/23 03:08:43;;;;;;;7.65;3.40;;;3.00;1.00;;;;;;21726999;27;20017;-77
2024/04/23 03:18:44;;;;;;;5.35;3.17;;;3.00;1.00;;;;;;21751735;27;20096;-76
2024/04/23 03:28:45;;;;;;;7.45;3.45;;;2.90;1.00;;;;;;21753183;27;20017;-79
2024/04/23 03:38:46;;;;;;;6.57;3.60;;;2.90;1.00;;;;;;21780538;26;19999;-81
2024/04/23 03:48:47;;;;;;;6.28;3.20;;;2.80;1.00;;;;;;21761061;27;20006;-80
2024/04/23 03:58:48;;;;;;;7.45;3.80;;;2.70;1.00;;;;;;21730513;27;20014;-78
2024/04/23 04:08:49;;;;;;;6.18;3.47;;;2.70;1.00;;;;;;21709306;27;22755;-79
2024/04/23 04:18:50;;;;;;;7.25;3.72;;;2.70;1.00;;;;;;21719429;27;20036;-80
2024/04/23 04:28:51;;;;;;;7.03;3.97;;;2.70;1.00;;;;;;21763304;27;20462;-82
2024/04/23 04:38:52;;;;;;;6.72;4.20;;;2.60;2.00;;;;;;21759464;27;20065;-78
2024/04/23 04:48:53;;;;;;;10.75;4.28;;;2.40;3.80;;;;;;21754520;27;20002;-78
2024/04/23 04:58:54;;;;;;;8.45;4.80;;;2.50;7.90;;;;;;21725350;27;20054;-78
2024/04/23 05:08:55;;;;;;;7.95;4.10;;;2.40;12.10;;;;;;21756553;27;20341;-78
2024/04/23 05:18:56;;;;;;;7.80;4.22;;;2.50;19.90;;;;;;21760676;27;20092;-78
2024/04/23 05:28:57;;;;;;;8.38;5.30;;;2.60;26.20;;;;;;21747131;27;20112;-79
2024/04/23 05:38:59;;;;;;;10.15;4.82;;;2.70;30.40;;;;;;21740380;27;20104;-78
2024/04/23 05:49:37;;;;;;;9.93;5.28;;;3.00;44.10;;;;;;21712800;27;20366;-76
2024/04/23 05:59:38;;;;;;;10.82;5.85;;;3.60;51.60;;;;;;21699646;27;20505;-76
2024/04/23 06:09:39;;;;;;;9.95;5.88;;;3.90;47.20;;;;;;21696868;27;20372;-77
2024/04/23 06:19:40;;;;;;;10.20;6.32;;;4.40;54.80;;;;;;21727607;27;20023;-76
2024/04/23 06:29:41;;;;;;;10.93;7.22;;;4.70;41.20;;;;;;21713871;27;20018;-75
2024/04/23 06:39:43;;;;;;;12.35;6.57;;;5.10;34.20;;;;;;21790081;27;20337;-74
2024/04/23 06:49:44;;;;;;;11.77;7.10;;;5.60;13.30;;;;;;21868191;26;20133;-75
2024/04/23 06:59:45;;;;;;;11.13;6.95;;;5.80;1.00;;;;;;21854944;27;20012;-74
2024/04/23 07:09:48;;;;;;;11.73;6.43;;;6.20;1.00;;;;;;21865553;26;20002;-75
2024/04/23 07:19:48;;;;;;;8.93;5.78;;;6.70;1.00;;;;;;21867335;27;20446;-74
2024/04/23 07:29:49;;;;;;;9.18;5.50;;;6.80;1.00;;;;;;21868015;26;20497;-76
2024/04/23 07:39:50;;;;;;;7.70;4.68;;;6.90;1.00;;;;;;21771378;26;20026;-75
2024/04/23 07:49:52;;;;;;;6.78;3.90;;;7.00;1.00;;;;;;21735231;27;20007;-75
2024/04/23 07:59:53;;;;;;;5.28;3.58;;;7.10;1.00;;;;;;21726013;27;20014;-74
2024/04/23 08:09:55;;;;;;;6.70;3.75;;;7.30;1.00;;;;;;21721759;27;20331;-77
2024/04/23 08:19:55;;;;;;;6.15;2.80;;;7.60;1.00;;;;;;21702901;27;20072;-77
2024/04/23 08:29:56;;;;;;;5.63;3.30;;;7.80;1.00;;;;;;21729483;27;20003;-77
2024/04/23 08:39:58;;;;;;;5.50;3.13;;;8.10;1.00;;;;;;21707754;27;20046;-80
2024/04/23 08:49:59;;;;;;;4.57;3.03;;;8.30;1.00;;;;;;21728153;27;20021;-78
2024/04/23 09:00:00;;;;;;;4.53;2.53;;;8.50;1.00;;;;;;21704065;27;20018;-77
2024/04/23 09:10:06;;;;;;;5.38;3.28;;;8.90;1.00;;;;;;21727579;27;20324;-79
2024/04/23 09:20:07;;;;;;;5.30;3.20;;;9.10;1.00;;;;;;21721573;27;20003;-78
2024/04/23 09:30:10;;;;;;;5.45;3.22;;;9.60;1.00;;;;;;21734526;27;19999;-78
2024/04/23 09:40:11;;;;;;;5.53;3.72;;;10.10;1.00;;;;;;21736994;27;20016;-78
2024/04/23 09:50:12;;;;;;;5.45;3.60;;;10.40;1.00;;;;;;21718377;27;20215;-79
2024/04/23 10:00:13;;;;;;;4.90;3.42;;;9.80;1.00;;;;;;21721301;27;20010;-79
2024/04/23 10:10:23;;;;;;;6.38;3.80;;;9.20;1.00;;;;;;21709421;27;20017;-80
2024/04/23 10:20:30;;;;;;;5.60;3.67;;;9.20;1.00;;;;;;21734160;27;20002;-79
2024/04/23 10:30:31;;;;;;;6.53;3.77;;;9.60;1.00;;;;;;21717933;27;20462;-80
2024/04/23 10:40:32;;;;;;;5.57;3.97;;;10.00;1.00;;;;;;21725473;27;20017;-80
2024/04/23 10:50:33;;;;;;;5.22;3.35;;;10.80;1.00;;;;;;21726580;27;19998;-80
2024/04/23 11:00:35;;;;;;;4.95;3.28;;;12.00;1.00;;;;;;21731011;27;20006;-80
2024/04/23 11:10:58;;;;;;;5.60;3.47;;;11.80;1.00;;;;;;21724091;27;20007;-77
2024/04/23 11:21:00;;;;;;;5.63;3.55;;;11.00;1.00;;;;;;21730910;27;19998;-78
2024/04/23 11:31:01;;;;;;;5.57;3.60;;;10.90;1.00;;;;;;21728968;27;20018;-77
2024/04/23 11:41:11;;;;;;;6.57;4.43;;;11.60;1.00;;;;;;21712515;27;20006;-77
2024/04/23 11:51:13;;;;;;;6.15;4.78;;;11.30;1.00;;;;;;21727946;27;20014;-77
2024/04/23 12:01:14;;;;;;;7.72;4.13;;;11.10;1.00;;;;;;21705858;27;20442;-77
2024/04/23 12:11:16;;;;;;;7.00;4.65;;;11.60;1.00;;;;;;21726599;27;20512;-81
2024/04/23 12:21:18;;;;;;;6.00;3.75;;;12.40;1.00;;;;;;21726519;27;20003;-82
2024/04/23 12:31:19;;;;;;;6.85;3.55;;;13.10;1.00;;;;;;21726825;27;19996;-79
2024/04/23 12:41:22;;;;;;;3.95;2.78;;;13.40;1.00;;;;;;21732474;27;20030;-79
2024/04/23 12:51:23;;;;;;;6.45;2.80;;;13.30;1.00;;;;;;21744147;27;20001;-80
2024/04/23 13:01:24;;;;;;;5.97;3.38;;;13.30;1.00;;;;;;21735623;27;20002;-79
2024/04/23 13:11:25;;;;;;;3.92;2.50;;;13.80;1.00;;;;;;21736611;27;20014;-79
2024/04/23 13:21:26;;;;;;;3.13;1.30;;;13.30;1.00;;;;;;21737435;27;20011;-79
2024/04/23 13:31:27;;;;;;;3.47;1.50;;;13.40;1.00;;;;;;21739768;27;19998;-79
2024/04/23 13:41:28;;;;;;;2.85;1.52;;;13.40;1.00;;;;;;21736067;27;20003;-79
2024/04/23 13:51:29;;;;;;;3.20;0.90;;;14.00;1.00;;;;;;21736824;27;20003;-79
2024/04/23 14:01:31;;;;;;;2.60;1.13;;;14.30;1.00;;;;;;21733936;27;20007;-78
2024/04/23 14:11:32;;;;;;;2.10;0.90;;;14.70;1.00;;;;;;21729779;27;20018;-77
2024/04/23 14:21:33;;;;;;;2.85;1.20;;;13.90;1.00;;;;;;21748645;27;20042;-78
2024/04/23 14:31:34;;;;;;;3.85;1.60;;;13.50;1.00;;;;;;21787252;27;20009;-77
2024/04/23 14:41:35;;;;;;;3.03;1.85;;;13.00;1.00;;;;;;21832784;27;20046;-77
2024/04/23 14:51:36;;;;;;;3.40;2.00;;;12.90;1.00;;;;;;21808082;27;20073;-78
2024/04/23 15:01:38;;;;;;;5.00;2.80;;;12.20;1.00;;;;;;21726939;27;20006;-77
2024/04/23 15:11:39;;;;;;;5.00;3.00;;;11.70;1.00;;;;;;21715870;27;20018;-77
2024/04/23 15:21:40;;;;;;;5.75;3.20;;;11.30;1.00;;;;;;21731209;27;20053;-80
2024/04/23 15:31:41;;;;;;;3.85;2.55;;;10.70;1.00;;;;;;21708221;27;20002;-79
2024/04/23 15:41:42;;;;;;;7.15;3.58;;;10.40;1.00;;;;;;21830643;27;20002;-79
2024/04/23 15:51:43;;;;;;;5.53;3.53;;;10.00;1.00;;;;;;21834294;27;20009;-81
2024/04/23 16:01:44;;;;;;;8.63;4.15;;;9.40;1.00;;;;;;21845207;27;20604;-79
2024/04/23 16:11:45;;;;;;;10.95;4.55;;;8.80;1.00;;;;;;21875922;26;20345;-80
2024/04/23 16:21:46;;;;;;;10.15;5.10;;;8.30;1.00;;;;;;21847931;27;20012;-80
2024/04/23 16:31:49;;;;;;;9.07;5.88;;;8.10;1.00;;;;;;21864777;27;20503;-80
2024/04/23 16:41:50;;;;;;;9.00;6.20;;;8.20;1.00;;;;;;21758739;26;20010;-81
2024/04/23 17:13:45;;;;;;;6.50;3.00;;;8.80;1.00;;;;;;21240130;27;20418;-77
2024/04/23 17:23:46;;;;;;;10.68;3.78;;;8.80;1.00;;;;;;21710302;27;20007;-77
2024/04/23 17:33:47;;;;;;;8.30;3.47;;;8.80;1.00;;;;;;21747870;27;19998;-77
2024/04/23 17:43:51;;;;;;;6.60;3.40;;;8.80;1.00;;;;;;21725915;27;20065;-77
2024/04/23 17:53:52;;;;;;;7.80;2.72;;;8.90;1.00;;;;;;21700828;27;20022;-78
2024/04/23 18:03:53;;;;;;;10.20;4.30;;;8.80;1.00;;;;;;21744458;27;19999;-77
2024/04/23 18:13:54;;;;;;;12.73;7.32;;;8.70;22.90;;;;;;21730651;27;20006;-76
2024/04/23 18:23:55;;;;;;;12.80;8.75;;;8.30;58.80;;;;;;21735549;27;20426;-78
2024/04/23 18:33:56;;;;;;;5.20;1.90;;;8.20;99.90;;;;;;21731927;27;20017;-79
2024/04/23 18:43:57;;;;;;;5.13;2.22;;;8.10;99.90;;;;;;21737622;27;19994;-78
2024/04/23 18:53:58;;;;;;;8.00;2.20;;;8.00;99.90;;;;;;21747530;27;19999;-78
2024/04/23 19:04:00;;;;;;;19.67;6.85;;;7.90;99.90;;;;;;21749090;27;20022;-78
2024/04/23 19:14:02;;;;;;;13.07;3.20;;;7.80;99.90;;;;;;21749369;27;20014;-78
2024/04/23 19:24:03;;;;;;;19.67;4.95;;;7.60;99.90;;;;;;21742716;27;19994;-79
2024/04/23 19:34:04;;;;;;;23.25;4.93;;;7.50;99.90;;;;;;21742209;27;23802;-79
2024/04/23 19:44:05;;;;;;;15.68;5.05;;;7.30;99.90;;;;;;21864258;26;20566;-82
2024/04/23 19:54:06;;;;;;;17.75;2.92;;;7.20;99.90;;;;;;21861930;26;20035;-80
2024/04/23 20:04:08;;;;;;;13.35;1.80;;;7.00;99.90;;;;;;21879841;27;20002;-79
2024/04/23 20:14:09;;;;;;;6.93;1.20;;;6.80;99.90;;;;;;21871142;26;19998;-79
2024/04/23 20:24:10;;;;;;;5.50;1.77;;;6.70;99.90;;;;;;21853167;27;20076;-79
2024/04/23 20:34:11;;;;;;;6.50;1.50;;;6.60;99.90;;;;;;21866212;27;20014;-80
2024/04/23 20:44:12;;;;;;;11.70;1.90;;;6.30;99.90;;;;;;21734858;27;20469;-78
2024/04/23 20:54:13;;;;;;;8.00;2.25;;;6.30;99.90;;;;;;21707170;27;20025;-78
2024/04/23 21:04:14;;;;;;;9.00;1.67;;;6.10;99.90;;;;;;21711957;27;20018;-78
2024/04/23 21:14:15;;;;;;;8.85;1.30;;;5.90;99.90;;;;;;21749246;27;20014;-78
2024/04/23 21:24:16;;;;;;;7.22;1.38;;;5.80;99.90;;;;;;21716131;27;20002;-78
2024/04/23 21:34:17;;;;;;;6.78;1.55;;;5.70;99.90;;;;;;21739394;27;20006;-78
2024/04/23 21:44:18;;;;;;;5.63;1.40;;;5.70;99.90;;;;;;21886966;27;20002;-78
2024/04/23 21:54:19;;;;;;;7.50;1.40;;;5.60;99.90;;;;;;21862223;26;20009;-78
2024/04/23 22:04:20;;;;;;;6.18;1.23;;;5.70;99.90;;;;;;21865114;27;20002;-75
2024/04/23 22:14:21;;;;;;;6.13;1.33;;;5.80;99.90;;;;;;21868577;26;20010;-76
2024/04/23 22:24:22;;;;;;;5.47;1.20;;;5.80;99.90;;;;;;21872849;26;19998;-77
2024/04/23 22:34:23;;;;;;;5.03;1.30;;;5.90;99.90;;;;;;21856485;26;20012;-75
2024/04/23 22:44:24;;;;;;;4.90;1.70;;;5.70;99.90;;;;;;21881639;26;20329;-77
2024/04/23 22:54:25;;;;;;;8.27;1.05;;;5.70;99.90;;;;;;21882428;27;20006;-76
2024/04/23 23:04:26;;;;;;;4.28;1.17;;;5.80;99.90;;;;;;21852543;26;20064;-76
2024/04/23 23:14:27;;;;;;;7.63;1.17;;;5.90;99.90;;;;;;21853666;26;20053;-79
2024/04/23 23:24:28;;;;;;;5.28;1.70;;;5.90;99.90;;;;;;21880412;26;19998;-80
2024/04/23 23:34:29;;;;;;;3.13;1.20;;;5.90;99.90;;;;;;21861080;26;20042;-79
2024/04/23 23:44:30;;;;;;;6.53;1.50;;;5.80;99.90;;;;;;21747380;27;20013;-79
2024/04/23 23:54:31;;;;;;;3.60;1.15;;;5.60;99.90;;;;;;21720781;27;20385;-79
